Fairview, North Carolina
Current Conditions -  °F | °C
As of 5:45 PM on Monday 26 Jan 2015 (Local Time) from KAVL Reporting Station
Overcast Overcast  
Wind Chill: 24°   Ceiling: 2800
Heat Index: 34°   Visibility: 10mi
Dew Point: 24°   Wind: 15mph
Humidity: 67%   Direction: 330°NNW
Pressure: 29.75"   Gusts: 24mph
Location:  35.52°N, 82.4°W
Report Text: KAVL 262245Z 33013G21KT 10SM OVC028 01/M04 A2975 RMK AO2 T00111044
Loading
Personal Weather Stations






























Interactive Weather Map New forecast layout! Learn more

10-Day Weather Forecast

Advertisements
Track Severe Weather on mobile